Antelope Valley, Nevada Weather observations

Data are for 10 minute period ending at time listed.
 Day   Time   Solar   Ave.   Ave.  Ave.  Vector  Max.   Baro.   Total    
  of    of     Rad.   Air    Rel.  Wind   Wind   Wind  Press.  Precip.   
Year   Day            Temp.  Hum.  Speed  Dir.   Gust                    
2017   (PST)  Kw/m2    F      %     mph   deg.    mph    mb.     in.     
-------------------------------------------------------------------------
 327    9:30   0.00   49.1    80    3.5   206     4.7   857.8    0.00 
 327    9:40   0.00   51.4    76    4.3   185     5.7   857.7    0.00 
 327    9:50   0.00   53.0    69    5.0   201     6.4   857.6    0.00 
 327   10:00   0.00   53.3    65    5.4   211     6.9   857.6    0.00 
 327   10:10   0.00   53.4    67    4.2   225     5.7   857.6    0.00 
 327   10:20   0.27   54.4    66    4.6   229     6.5   857.5    0.00 
 327   10:30   0.40   56.2    58    4.4   233     5.7   857.4    0.00 
 327   10:40   0.43   56.9    59    3.6   245     4.8   857.3    0.00 
 327   10:50   0.44   57.5    58    3.7   244     5.6   857.2    0.00 
 327   11:00   0.45   58.6    54    3.9   234     5.3   857.1    0.00 
 327   11:10   0.49   59.9    52    3.3   233     5.0   856.9    0.00 
 327   11:20   0.60   62.0    48    2.1   204     3.9   856.7    0.00 
 327   11:30   0.51   63.7    44    1.6   235     3.9   856.6    0.00 
 327   11:40   0.51   64.9    40    2.3   215     5.9   856.2    0.00 
 327   11:50   0.48   65.6    38    2.9   219     5.3   856.0    0.00 
 327   12:00   0.48   66.9    37    4.2   227     7.9   855.8    0.00 
 327   12:10   0.48   67.0    35    4.8   216     7.5   855.8    0.00 
 327   12:20   0.55   68.3    34    5.2   207     8.3   855.6    0.00 
 327   12:30   0.52   69.0    31    6.1   223     9.9   855.2    0.00 
 327   12:40   0.44   68.6    32    8.2   222    11.5   855.2    0.00 
 327   12:50   0.30   68.4    32    7.2   216    11.7   854.9    0.00 
 327   13:00   0.37   68.1    33    7.6   230    11.5   854.8    0.00 
 327   13:10   0.44   69.3    30    7.0   229    11.8   854.6    0.00 
 327   13:20   0.11   68.5    30    9.5   228    15.5   854.5    0.00 
 327   13:30   0.14   67.0    33    8.8   234    12.8   854.4    0.00 
 327   13:40   0.18   66.4    34    8.1   228    11.2   854.4    0.00 
 327   13:50   0.26   67.7    32    7.8   219    11.5   854.5    0.00 
 327   14:00   0.19   67.2    33    6.5   219     9.3   854.5    0.00 
 327   14:10   0.36   68.1    31    6.7   214     9.9   854.4    0.00 
 327   14:20   0.28   68.2    30    5.8   215    10.0   854.3    0.00 
 327   14:30   0.29   68.5    30    5.6   207     8.4   854.1    0.00 
 327   14:40   0.14   68.0    30    5.5   205     8.0   854.1    0.00 
 327   14:50   0.14   66.8    33    5.3   205     8.7   853.9    0.00 
 327   15:00   0.14   66.2    35    6.1   226     8.3   853.9    0.00 
 327   15:10   0.10   65.7    36    5.6   227     7.9   853.8    0.00 
 327   15:20   0.08   65.0    38    4.9   215     6.8   853.9    0.00 
 327   15:30   0.15   65.4    38    4.6   196     6.3   853.9    0.00 
 327   15:40   0.14   66.7    33    4.2   165     6.7   853.8    0.00 
 327   15:50   0.13   67.1    32    4.0   180     9.3   853.7    0.00 
 327   16:00   0.07   65.9    32    5.4   156     9.5   853.5    0.00 
 327   16:10   0.05   64.9    33    5.1   156     8.3   853.6    0.00 
 327   16:20   0.02   64.4    35    3.6   174     6.1   853.7    0.00 
 327   16:30   0.01   61.9    42    3.9   172     5.8   853.6    0.00 
 327   16:40   0.00   61.2    41    5.5   167     9.8   853.5    0.00 
 327   16:50   0.00   61.8    39    5.6   153     9.3   853.6    0.00 
 327   17:00   0.00   59.2    47    3.5   209     4.8   853.6    0.00 
 327   17:10   0.00   58.6    47    3.2   181     4.2   853.7    0.00 
 327   17:20   0.00   57.3    49    3.4   162     5.4   853.7    0.00 
 327   17:30   0.00   55.6    53    5.7   146     6.9   853.7    0.00 
 327   17:40   0.00   54.3    56    5.4   143     7.1   853.8    0.00 
 327   17:50   0.00   54.3    55    5.6   150     7.7   853.8    0.00 
 327   18:00   0.00   55.7    51    5.2   163     8.0   853.8    0.00 
 327   18:10   0.00   57.7    46    4.5   180     8.3   853.7    0.00 
 327   18:20   0.00   56.3    50    2.5   162     4.4   853.7    0.00 
 327   18:30   0.00   55.0    53    4.9   165     6.2   853.7    0.00 
 327   18:40   0.00   55.5    53    5.3   199     7.5   853.7    0.00 
 327   18:50   0.00   54.4    56    4.2   235     6.0   853.8    0.00 
 327   19:00   0.00   54.0    56    2.4   193     4.7   853.6    0.00 
 327   19:10   0.00   53.3    58    2.5   136     3.7   853.4    0.00 
 327   19:20   0.00   51.7    64    1.4   205     4.2   853.5    0.00 
 327   19:30   0.00   52.8    58    1.4   119     4.9   853.2    0.00 
 327   19:40   0.00   55.3    51    0.7   129     2.1   853.2    0.00 
 327   19:50   0.00   53.8    56    0.6   150     1.7   853.2    0.00 
 327   20:00   0.00   53.1    57    0.8   157     3.5   853.3    0.00 
 327   20:10   0.00   53.2    55    0.4   349     2.3   853.2    0.00 
 327   20:20   0.00   54.2    52    0.8    13     2.2   853.2    0.00 
 327   20:30   0.00   53.9    53    0.7    95     2.9   853.0    0.00 
 327   20:40   0.00   53.9    53    2.3    58     4.7   853.0    0.00 
 327   20:50   0.00   53.5    52    3.8   110     5.6   852.9    0.00 
 327   21:00   0.00   49.9    60    4.8   129     7.7   852.8    0.00 
 327   21:10   0.00   49.9    59    1.0   222     4.3   852.9    0.00 
 327   21:20   0.00   52.3    52    1.8    61     3.1   852.8    0.00 
 327   21:30   0.00   51.6    53    1.9   142     3.4   852.8    0.00 
 327   21:40   0.00   48.9    59    2.4   176     5.0   853.0    0.00 
 327   21:50   0.00   49.0    60    3.4   168     4.7   852.8    0.00 
 327   22:00   0.00   49.7    57    1.8   191     4.8   852.8    0.00 
 327   22:10   0.00   46.9    64    1.8   128     3.4   852.8    0.00 
 327   22:20   0.00   49.0    61    1.7   138     4.0   852.9    0.00 
 327   22:30   0.00   51.0    57    2.6   155     4.8   852.9    0.00 
 327   22:40   0.00   51.2    56    0.9   114     2.5   853.0    0.00 
 327   22:50   0.00   52.1    54    2.6   160     5.5   852.9    0.00 
 327   23:00   0.00   52.8    54    5.2   169     7.5   852.9    0.00 
 327   23:10   0.00   52.1    56    6.1   169     9.6   852.8    0.00 
 327   23:20   0.00   51.2    56    5.5   158     8.3   852.7    0.00 
 327   23:30   0.00   50.0    58    5.9   151     9.1   852.8    0.00 
 327   23:40   0.00   46.8    64    6.4   151     7.7   852.6    0.00 
 327   23:50   0.00   46.4    65    6.7   150     8.0   852.3    0.00 
 328    0:00   0.00   47.3    64    4.4   160     6.3   852.2    0.00 
 328    0:10   0.00   47.0    64    3.4   171     4.5   852.3    0.00 
 328    0:20   0.00   46.8    64    2.7   228     4.5   852.3    0.00 
 328    0:30   0.00   45.6    66    2.7   206     4.5   852.3    0.00 
 328    0:40   0.00   45.9    65    4.0   165     7.0   852.1    0.00 
 328    0:50   0.00   44.6    67    5.5   154     6.9   852.0    0.00 
 328    1:00   0.00   42.9    71    5.4   147     6.3   851.9    0.00 
 328    1:10   0.00   41.5    74    4.9   143     6.1   851.7    0.00 
 328    1:20   0.00   41.9    73    4.1   138     5.0   851.8    0.00 
 328    1:30   0.00   40.9    74    3.8   133     4.8   851.7    0.00 
 328    1:40   0.00   40.2    76    3.9   136     5.3   851.7    0.00 
 328    1:50   0.00   41.6    73    4.4   143     5.7   851.8    0.00 
 328    2:00   0.00   42.7    70    4.1   141     5.1   851.8    0.00 
 328    2:10   0.00   42.5    71    4.7   149     6.4   851.8    0.00 
 328    2:20   0.00   43.1    69    3.5   151     6.3   851.8    0.00 
 328    2:30   0.00   43.5    69    2.2   173     5.0   851.7    0.00 
 328    2:40   0.00   44.2    66    0.9   214     2.9   851.6    0.00 
 328    2:50   0.00   42.9    68    2.4   206     4.5   851.4    0.00 
 328    3:00   0.00   40.4    72    1.0   333     2.9   851.4    0.00 
 328    3:10   0.00   39.7    76    0.9   334     2.5   851.4    0.00 
 328    3:20   0.00   40.8    74    0.9   321     3.3   851.4    0.00 
 328    3:30   0.00   41.5    70    1.8    22     4.3   851.3    0.00 
 328    3:40   0.00   39.1    75    1.3    85     3.0   851.4    0.00 
 328    3:50   0.00   40.1    74    1.3   116     3.6   851.5    0.00 
 328    4:00   0.00   40.2    74    3.8   146     6.1   851.4    0.00 
 328    4:10   0.00   42.1    70    4.8   172     6.4   851.1    0.00 
 328    4:20   0.00   42.5    69    2.9   195     6.6   851.2    0.00 
 328    4:30   0.00   41.4    71    1.8   196     3.4   851.3    0.00 
 328    4:40   0.00   41.1    72    2.3   175     4.6   851.3    0.00 
 328    4:50   0.00   41.5    73    1.6   168     3.5   851.2    0.00 
 328    5:00   0.00   40.5    73    2.4   324     7.3   851.5    0.00 
 328    5:10   0.00   38.7    79    4.2     8     6.0   851.7    0.00 
 328    5:20   0.00   38.6    81    3.7    30     4.8   851.8    0.00 
 328    5:30   0.00   38.8    80    4.0    74     4.9   851.9    0.00 
 328    5:40   0.00   37.9    81    4.3   130     5.9   851.8    0.00 
 328    5:50   0.00   37.5    83    2.3   322     4.3   852.1    0.00 
 328    6:00   0.00   37.4    83    1.8   201     3.8   852.0    0.00 
 328    6:10   0.00   38.2    83    3.2   179     4.9   851.9    0.00 
 328    6:20   0.00   40.4    77    5.4   191     8.0   852.0    0.00 
 328    6:30   0.00   40.1    75    4.5   187     5.8   852.1    0.00 
 328    6:40   0.00   41.4    73    3.2   190     6.4   852.2    0.00 
 328    6:50   0.01   41.0    73    1.9   207     5.0   852.3    0.00 
 328    7:00   0.01   38.3    78    3.1   336     5.3   852.3    0.00 
 328    7:10   0.02   37.2    81    3.8     9     5.6   852.4    0.00 
 328    7:20   0.05   37.4    84    3.8    28     6.3   852.5    0.00 
 328    7:30   0.09   38.7    84    2.4    49     3.1   852.6    0.00 
 328    7:40   0.04   40.4    80    2.0    40     3.1   852.8    0.00 
 328    7:50   0.03   42.4    74    2.3    63     4.2   852.9    0.00 
 328    8:00   0.10   45.6    66    0.8   298     4.3   853.2    0.00 
 328    8:10   0.16   44.8    69    1.6   328     5.0   853.3    0.00 
 328    8:20   0.18   47.0    66    1.4    37     2.9   853.4    0.00 
 328    8:30   0.21   50.3    63    0.3   234     1.9   853.6    0.00 
 328    8:40   0.23   50.4    62    2.7   215     4.2   853.6    0.00 
 328    8:50   0.25   52.9    58    2.5   174     4.5   853.9    0.00 
 328    9:00   0.27   54.9    51    4.1   179     6.9   854.3    0.00 
 328    9:10   0.29   55.4    48    6.0   202     9.1   854.4    0.00 
 328    9:20   0.32   55.6    46    7.2   210    10.3   854.4    0.00 

Return to Antelope Valley graphs page.


Western Regional Climate Center,wrcc@dri.edu